createdAt,value
2018-11-25T00:00:02.682Z,7.9
2018-11-25T00:01:04.066Z,7.9
2018-11-25T00:02:05.606Z,7.9
2018-11-25T00:03:06.999Z,7.9
2018-11-25T00:04:08.253Z,7.9
2018-11-25T00:05:09.498Z,7.9
2018-11-25T00:06:10.732Z,7.9
2018-11-25T00:07:12.272Z,7.9
2018-11-25T00:08:13.671Z,7.9
2018-11-25T00:09:15.089Z,7.9
2018-11-25T00:10:16.660Z,7.9
2018-11-25T00:11:18.057Z,7.9
2018-11-25T00:12:19.444Z,7.9
2018-11-25T00:13:20.855Z,7.9
2018-11-25T00:14:22.397Z,7.9
2018-11-25T00:15:23.966Z,7.9
2018-11-25T00:16:25.528Z,7.9
2018-11-25T00:17:26.768Z,7.9
2018-11-25T00:18:28.186Z,7.9
2018-11-25T00:19:29.276Z,7.9
2018-11-25T00:20:30.656Z,7.9
2018-11-25T00:21:31.744Z,7.9
2018-11-25T00:22:33.145Z,7.9
2018-11-25T00:23:34.682Z,7.9
2018-11-25T00:24:35.913Z,7.2
2018-11-25T00:25:37.164Z,7.3
2018-11-25T00:26:38.243Z,7.4
2018-11-25T00:27:39.496Z,7.4
2018-11-25T00:28:40.749Z,7.4
2018-11-25T00:29:42.152Z,7.5
2018-11-25T00:30:43.237Z,7.5
2018-11-25T00:31:44.334Z,7.5
2018-11-25T00:32:45.411Z,7.6
2018-11-25T00:33:46.813Z,7.6
2018-11-25T00:34:48.349Z,7.6
2018-11-25T00:35:49.431Z,7.7
2018-11-25T00:36:50.970Z,7.7
2018-11-25T00:37:52.508Z,7.7
2018-11-25T00:38:54.046Z,7.8
2018-11-25T00:39:55.442Z,7.8
2018-11-25T00:40:56.988Z,7.8
2018-11-25T00:41:58.553Z,7.8
2018-11-25T00:42:59.959Z,7.8
2018-11-25T00:44:01.536Z,7.8
2018-11-25T00:45:02.928Z,7.8
2018-11-25T00:46:04.327Z,7.8
2018-11-25T00:47:05.898Z,7.9
2018-11-25T00:48:07.154Z,7.9
2018-11-25T00:49:08.706Z,7.9
2018-11-25T00:50:10.266Z,7.9
2018-11-25T00:51:11.689Z,7.8
2018-11-25T00:52:13.077Z,7.8
2018-11-25T00:53:14.158Z,7.8
2018-11-25T00:54:15.718Z,7.8
2018-11-25T00:55:16.817Z,7.8
2018-11-25T00:56:18.236Z,7.9
2018-11-25T00:57:19.459Z,7.9
2018-11-25T00:58:20.842Z,7.9
2018-11-25T00:59:22.068Z,7.5
2018-11-25T01:00:23.148Z,7.6
2018-11-25T01:01:24.534Z,7.6
2018-11-25T01:02:25.922Z,7.6
2018-11-25T01:03:27.311Z,7.6
2018-11-25T01:04:28.376Z,7.6
2018-11-25T01:05:29.617Z,7.6
2018-11-25T01:06:30.841Z,7.6
2018-11-25T01:07:32.382Z,7.6
2018-11-25T01:08:33.619Z,7.6
2018-11-25T01:09:34.998Z,7.6
2018-11-25T01:10:36.389Z,7.6
2018-11-25T01:11:37.929Z,7.6
2018-11-25T01:12:39.173Z,7.6
2018-11-25T01:13:40.563Z,7.7
2018-11-25T01:14:41.955Z,7.7
2018-11-25T01:15:43.194Z,7.7
2018-11-25T01:16:44.435Z,7.7
2018-11-25T01:17:45.699Z,7.7
2018-11-25T01:18:47.103Z,7.7
2018-11-25T01:19:48.488Z,7.7
2018-11-25T01:20:49.719Z,7.8
2018-11-25T01:21:51.113Z,7.8
2018-11-25T01:22:52.345Z,7.8
2018-11-25T01:23:53.575Z,7.8
2018-11-25T01:24:54.984Z,7.8
2018-11-25T01:25:56.362Z,7.8
2018-11-25T01:26:57.735Z,7.8
2018-11-25T01:27:59.116Z,7.8
2018-11-25T01:29:00.675Z,7.9
2018-11-25T01:30:02.079Z,7.9
2018-11-25T01:31:03.180Z,7.8
2018-11-25T01:32:04.574Z,7.9
2018-11-25T01:33:05.976Z,7.8
2018-11-25T01:34:07.539Z,7.8
2018-11-25T01:35:08.927Z,7.8
2018-11-25T01:36:10.168Z,7.8
2018-11-25T01:37:11.559Z,7.8
2018-11-25T01:38:12.945Z,7.8
2018-11-25T01:39:14.319Z,7.8
2018-11-25T01:40:15.711Z,7.9
2018-11-25T01:41:16.928Z,7.9
2018-11-25T01:42:18.159Z,7.9
2018-11-25T01:43:19.229Z,7.9
2018-11-25T01:44:20.314Z,7.9
2018-11-25T01:45:21.709Z,7.8
2018-11-25T01:46:23.235Z,7.8
2018-11-25T01:47:24.629Z,7.8
2018-11-25T01:48:26.010Z,7.8
2018-11-25T01:49:27.575Z,7.8
2018-11-25T01:50:28.809Z,7.8
2018-11-25T01:51:29.931Z,7.8
2018-11-25T01:52:31.313Z,7.8
2018-11-25T01:53:32.730Z,7.8
2018-11-25T01:54:34.133Z,7.8
2018-11-25T01:55:35.537Z,7.8
2018-11-25T01:56:36.625Z,7.8
2018-11-25T01:57:37.702Z,7.8
2018-11-25T01:58:39.080Z,7.8
2018-11-25T01:59:40.310Z,7.8
2018-11-25T02:00:41.714Z,7.8
2018-11-25T02:01:43.282Z,7.8
2018-11-25T02:02:44.377Z,7.8
2018-11-25T02:03:45.739Z,7.8
2018-11-25T02:04:47.122Z,7.8
2018-11-25T02:05:48.675Z,7.8
2018-11-25T02:06:50.225Z,7.8
2018-11-25T02:07:51.602Z,7.8
2018-11-25T02:08:52.985Z,7.7
2018-11-25T02:09:54.377Z,7.6
2018-11-25T02:10:55.449Z,7.6
2018-11-25T02:11:56.829Z,7.5
2018-11-25T02:12:58.385Z,7.4
2018-11-25T02:13:59.780Z,7.3
2018-11-25T02:15:01.078Z,7.2
2018-11-25T02:16:02.460Z,7.2
2018-11-25T02:17:03.689Z,7.2
2018-11-25T02:18:05.229Z,7.1
2018-11-25T02:19:06.452Z,7.1
2018-11-25T02:20:07.856Z,7.1
2018-11-25T02:21:09.459Z,7.1
2018-11-25T02:22:10.990Z,7.1
2018-11-25T02:23:12.217Z,7.1
2018-11-25T02:24:13.641Z,7.1
2018-11-25T02:25:15.189Z,7.1
2018-11-25T02:26:16.401Z,7.1
2018-11-25T02:27:17.787Z,7.1
2018-11-25T02:28:19.189Z,7.1
2018-11-25T02:29:20.560Z,7.1
2018-11-25T02:30:21.987Z,7.1
2018-11-25T02:31:23.517Z,7.1
2018-11-25T02:32:24.924Z,7.1
2018-11-25T02:33:26.179Z,7.1
2018-11-25T02:34:27.275Z,7.1
2018-11-25T02:35:28.658Z,7.1
2018-11-25T02:36:30.034Z,7.1
2018-11-25T02:37:31.261Z,7.1
2018-11-25T02:38:32.332Z,7.1
2018-11-25T02:39:33.720Z,7.1
2018-11-25T02:40:34.952Z,7.1
2018-11-25T02:41:36.180Z,7.1
2018-11-25T02:42:37.718Z,7.1
2018-11-25T02:43:39.100Z,7.1
2018-11-25T02:44:40.647Z,7.1
2018-11-25T02:45:41.881Z,7.1
2018-11-25T02:46:43.113Z,7.2
2018-11-25T02:47:44.522Z,7.2
2018-11-25T02:48:45.742Z,7.2
2018-11-25T02:49:46.652Z,7.2
2018-11-25T02:50:48.051Z,7.2
2018-11-25T02:51:49.598Z,7.2
2018-11-25T02:52:50.811Z,7.2
2018-11-25T02:53:52.388Z,7.2
2018-11-25T02:54:53.779Z,7.2
2018-11-25T02:55:55.008Z,7.2
2018-11-25T02:56:56.556Z,7.2
2018-11-25T02:57:58.119Z,7.2
2018-11-25T02:58:59.200Z,7.2
2018-11-25T03:00:00.598Z,7.2
2018-11-25T03:01:01.831Z,7.2
2018-11-25T03:02:03.208Z,7.2
2018-11-25T03:03:04.590Z,7.2
2018-11-25T03:04:05.829Z,7.2
2018-11-25T03:05:06.900Z,7.2
2018-11-25T03:06:07.980Z,7.2
2018-11-25T03:07:09.219Z,7.2
2018-11-25T03:08:10.288Z,7.2
2018-11-25T03:09:11.514Z,7.3
2018-11-25T03:10:12.894Z,7.3
2018-11-25T03:11:14.272Z,7.3
2018-11-25T03:12:15.508Z,7.3
2018-11-25T03:13:16.891Z,7.4
2018-11-25T03:14:18.266Z,7.4
2018-11-25T03:15:19.836Z,7.4
2018-11-25T03:16:21.396Z,7.4
2018-11-25T03:17:22.484Z,7.4
2018-11-25T03:18:23.739Z,7.5
2018-11-25T03:19:25.259Z,7.5
2018-11-25T03:20:26.649Z,7.6
2018-11-25T03:21:28.025Z,7.6
2018-11-25T03:22:29.560Z,7.7
2018-11-25T03:23:31.328Z,7.7
2018-11-25T03:24:32.723Z,7.8
2018-11-25T03:25:34.090Z,7.8
2018-11-25T03:26:35.478Z,7.8
2018-11-25T03:27:37.042Z,7.8
2018-11-25T03:28:38.308Z,7.8
2018-11-25T03:29:39.709Z,7.8
2018-11-25T03:30:40.962Z,7.8
2018-11-25T03:31:42.495Z,7.8
2018-11-25T03:32:43.879Z,7.8
2018-11-25T03:33:45.124Z,7.9
2018-11-25T03:34:46.200Z,7.9
2018-11-25T03:35:47.756Z,7.9
2018-11-25T03:36:49.140Z,7.9
2018-11-25T03:37:50.452Z,7.8
2018-11-25T03:38:51.842Z,7.8
2018-11-25T03:39:52.910Z,7.8
2018-11-25T03:40:54.288Z,7.8
2018-11-25T03:41:55.526Z,7.8
2018-11-25T03:42:57.148Z,7.9
2018-11-25T03:43:58.520Z,7.9
2018-11-25T03:44:59.759Z,7.9
2018-11-25T03:46:01.140Z,7.9
2018-11-25T03:47:02.530Z,7.9
2018-11-25T03:48:03.772Z,7.9
2018-11-25T03:49:05.158Z,7.9
2018-11-25T03:50:06.560Z,7.9
2018-11-25T03:51:07.948Z,7.8
2018-11-25T03:52:09.510Z,7.8
2018-11-25T03:53:11.042Z,7.8
2018-11-25T03:54:12.590Z,7.8
2018-11-25T03:55:14.140Z,7.8
2018-11-25T03:56:15.688Z,7.8
2018-11-25T03:57:17.244Z,7.8
2018-11-25T03:58:18.646Z,7.8
2018-11-25T03:59:20.020Z,7.9
2018-11-25T04:00:21.272Z,7.9
2018-11-25T04:01:22.500Z,7.9
2018-11-25T04:02:24.050Z,7.9
2018-11-25T04:03:25.780Z,7.9
2018-11-25T04:04:27.100Z,7.9
2018-11-25T04:05:29.873Z,7.9
2018-11-25T04:06:31.434Z,7.9
2018-11-25T04:07:32.820Z,7.9
2018-11-25T04:08:34.369Z,7.9
2018-11-25T04:09:35.921Z,7.9
2018-11-25T04:10:37.188Z,7.9
2018-11-25T04:11:38.572Z,7.9
2018-11-25T04:12:39.968Z,7.8
2018-11-25T04:13:41.216Z,7.8
2018-11-25T04:14:42.622Z,7.7
2018-11-25T04:15:44.013Z,7.6
2018-11-25T04:16:45.396Z,7.5
2018-11-25T04:17:46.618Z,7.4
2018-11-25T04:18:48.013Z,7.3
2018-11-25T04:19:49.550Z,7.2
2018-11-25T04:20:50.944Z,7.2
2018-11-25T04:21:52.478Z,7.2
2018-11-25T04:22:53.712Z,7.2
2018-11-25T04:23:55.086Z,7.2
2018-11-25T04:24:56.317Z,7.2
2018-11-25T04:25:57.858Z,7.1
2018-11-25T04:26:59.238Z,7.2
2018-11-25T04:28:00.640Z,7.2
2018-11-25T04:29:02.022Z,7.2
2018-11-25T04:30:03.178Z,7.2
2018-11-25T04:31:04.399Z,7.2
2018-11-25T04:32:05.961Z,7.2
2018-11-25T04:33:07.499Z,7.2
2018-11-25T04:34:08.748Z,7.2
2018-11-25T04:35:10.290Z,7.2
2018-11-25T04:36:11.837Z,7.2
2018-11-25T04:37:12.900Z,7.3
2018-11-25T04:38:14.446Z,7.3
2018-11-25T04:39:15.699Z,7.3
2018-11-25T04:40:16.946Z,7.4
2018-11-25T04:41:18.497Z,7.5
2018-11-25T04:42:19.888Z,7.6
2018-11-25T04:43:21.286Z,7.7
2018-11-25T04:44:23.869Z,7.7
2018-11-25T04:45:25.268Z,7.8
2018-11-25T04:46:26.799Z,7.8
2018-11-25T04:47:28.338Z,7.9
2018-11-25T04:48:29.890Z,7.9
2018-11-25T04:49:31.309Z,7.9
2018-11-25T04:50:32.520Z,7.9
2018-11-25T04:51:33.748Z,7.9
2018-11-25T04:52:34.826Z,7.9
2018-11-25T04:53:36.208Z,7.8
2018-11-25T04:54:37.754Z,7.9
2018-11-25T04:55:39.140Z,7.9
2018-11-25T04:56:40.686Z,7.9
2018-11-25T04:57:42.084Z,7.9
2018-11-25T04:58:43.648Z,7.9
2018-11-25T04:59:45.029Z,7.9
2018-11-25T05:00:46.268Z,7.9
2018-11-25T05:01:47.330Z,7.9
2018-11-25T05:02:48.578Z,7.2
2018-11-25T05:03:50.126Z,7.2
2018-11-25T05:04:52.749Z,7.2
2018-11-25T05:05:54.309Z,7.3
2018-11-25T05:06:55.694Z,7.3
2018-11-25T05:07:56.798Z,7.4
2018-11-25T05:08:58.024Z,7.4
2018-11-25T05:09:59.416Z,7.4
2018-11-25T05:11:00.805Z,7.4
2018-11-25T05:12:02.197Z,7.5
2018-11-25T05:13:03.749Z,7.5
2018-11-25T05:14:05.298Z,7.6
2018-11-25T05:15:06.698Z,7.6
2018-11-25T05:16:08.080Z,7.7
2018-11-25T05:17:09.318Z,7.7
2018-11-25T05:18:10.698Z,7.7
2018-11-25T05:19:11.930Z,7.7
2018-11-25T05:20:13.319Z,7.7
2018-11-25T05:21:14.107Z,7.7
2018-11-25T05:22:15.508Z,7.7
2018-11-25T05:23:16.736Z,7.8
2018-11-25T05:24:18.141Z,7.8
2018-11-25T05:25:19.225Z,7.8
2018-11-25T05:26:20.612Z,7.8
2018-11-25T05:27:22.004Z,7.8
2018-11-25T05:28:23.067Z,7.9
2018-11-25T05:29:24.618Z,7.8
2018-11-25T05:30:25.861Z,7.8
2018-11-25T05:31:27.251Z,7.8
2018-11-25T05:32:28.471Z,7.8
2018-11-25T05:33:29.858Z,7.8
2018-11-25T05:34:30.937Z,7.8
2018-11-25T05:35:32.193Z,7.8
2018-11-25T05:36:33.581Z,7.8
2018-11-25T05:37:34.819Z,7.8
2018-11-25T05:38:36.050Z,7.8
2018-11-25T05:39:37.640Z,7.9
2018-11-25T05:40:38.890Z,7.9
2018-11-25T05:41:40.120Z,7.9
2018-11-25T05:42:41.721Z,7.9
2018-11-25T05:43:43.275Z,7.9
2018-11-25T05:44:44.508Z,7.9
2018-11-25T05:45:45.738Z,7.9
2018-11-25T05:46:47.272Z,7.8
2018-11-25T05:47:48.502Z,7.8
2018-11-25T05:48:49.578Z,7.8
2018-11-25T05:49:50.799Z,7.8
2018-11-25T05:50:51.878Z,7.8
2018-11-25T05:51:53.274Z,7.8
2018-11-25T05:52:54.348Z,7.8
2018-11-25T05:53:55.727Z,7.9
2018-11-25T05:54:56.965Z,7.9
2018-11-25T05:55:58.186Z,7.9
2018-11-25T05:56:59.255Z,7.9
2018-11-25T05:58:00.639Z,7.9
2018-11-25T05:59:02.048Z,7.8
2018-11-25T06:00:03.607Z,7.8
2018-11-25T06:01:04.839Z,7.7
2018-11-25T06:02:06.243Z,7.7
2018-11-25T06:03:07.608Z,7.5
2018-11-25T06:04:08.875Z,7.4
2018-11-25T06:05:10.268Z,7.3
2018-11-25T06:06:11.498Z,7.2
2018-11-25T06:07:12.603Z,7.2
2018-11-25T06:08:13.979Z,7.2
2018-11-25T06:09:15.537Z,7.1
2018-11-25T06:10:16.792Z,7.1
2018-11-25T06:11:18.329Z,7.1
2018-11-25T06:12:19.705Z,7.2
2018-11-25T06:13:21.250Z,7.1
2018-11-25T06:14:22.846Z,7.1
2018-11-25T06:15:24.069Z,7.2
2018-11-25T06:16:25.447Z,7.2
2018-11-25T06:17:26.981Z,7.2
2018-11-25T06:18:28.210Z,7.2
2018-11-25T06:19:29.295Z,7.2
2018-11-25T06:20:30.845Z,7.2
2018-11-25T06:21:32.379Z,7.2
2018-11-25T06:22:33.607Z,7.2
2018-11-25T06:23:34.858Z,7.2
2018-11-25T06:24:36.261Z,7.2
2018-11-25T06:25:37.688Z,7.2
2018-11-25T06:26:39.068Z,7.3
2018-11-25T06:27:40.459Z,7.4
2018-11-25T06:28:41.847Z,7.5
2018-11-25T06:29:43.228Z,7.5
2018-11-25T06:30:44.633Z,7.6
2018-11-25T06:31:45.882Z,7.7
2018-11-25T06:32:47.110Z,7.7
2018-11-25T06:33:48.663Z,7.8
2018-11-25T06:34:49.883Z,7.8
2018-11-25T06:35:51.262Z,7.8
2018-11-25T06:36:52.510Z,7.8
2018-11-25T06:37:53.738Z,7.8
2018-11-25T06:38:55.298Z,7.8
2018-11-25T06:39:56.840Z,7.8
2018-11-25T06:40:58.388Z,7.9
2018-11-25T06:41:59.607Z,7.9
2018-11-25T06:43:01.169Z,7.9
2018-11-25T06:44:02.502Z,7.9
2018-11-25T06:45:03.935Z,7.9
2018-11-25T06:46:05.120Z,7.9
2018-11-25T06:47:06.499Z,7.9
2018-11-25T06:48:07.930Z,7.9
2018-11-25T06:49:09.009Z,7.9
2018-11-25T06:50:10.565Z,7.9
2018-11-25T06:51:11.809Z,7.9
2018-11-25T06:52:13.217Z,7.9
2018-11-25T06:53:14.545Z,7.9
2018-11-25T06:54:15.919Z,7.8
2018-11-25T06:55:17.160Z,7.8
2018-11-25T06:56:18.568Z,7.8
2018-11-25T06:57:19.666Z,7.8
2018-11-25T06:58:21.075Z,7.8
2018-11-25T06:59:22.619Z,7.8
2018-11-25T07:00:24.033Z,7.8
2018-11-25T07:01:25.281Z,7.8
2018-11-25T07:02:26.662Z,7.8
2018-11-25T07:03:28.209Z,7.8
2018-11-25T07:04:29.486Z,7.8
2018-11-25T07:05:30.893Z,7.8
2018-11-25T07:06:32.261Z,7.8
2018-11-25T07:07:33.651Z,7.8
2018-11-25T07:08:34.898Z,7.8
2018-11-25T07:09:36.519Z,7.8
2018-11-25T07:10:37.930Z,7.8
2018-11-25T07:11:39.181Z,7.8
2018-11-25T07:12:40.579Z,7.8
2018-11-25T07:13:42.183Z,7.9
2018-11-25T07:14:43.579Z,7.9
2018-11-25T07:15:44.820Z,7.9
2018-11-25T07:16:46.073Z,7.9
2018-11-25T07:17:47.621Z,7.9
2018-11-25T07:18:48.697Z,7.9
2018-11-25T07:19:50.098Z,7.9
2018-11-25T07:20:51.518Z,7.9
2018-11-25T07:21:52.581Z,7.9
2018-11-25T07:22:55.535Z,7.9
2018-11-25T07:23:56.765Z,7.9
2018-11-25T07:24:58.159Z,7.9
2018-11-25T07:25:59.556Z,7.9
2018-11-25T07:27:00.803Z,7.9
2018-11-25T07:28:19.877Z,7.9
2018-11-25T07:29:21.246Z,7.9
2018-11-25T07:30:22.473Z,7.1
2018-11-25T07:31:23.709Z,7.3
2018-11-25T07:32:25.146Z,7.4
2018-11-25T07:33:26.570Z,7.5
2018-11-25T07:34:27.829Z,7.6
2018-11-25T07:35:29.239Z,7.6
2018-11-25T07:36:30.615Z,7.7
2018-11-25T07:37:31.838Z,7.8
2018-11-25T07:38:33.229Z,7.8
2018-11-25T07:39:34.464Z,7.9
2018-11-25T07:40:36.674Z,7.9
2018-11-25T07:41:37.591Z,7.9
2018-11-25T07:42:38.681Z,7.2
2018-11-25T07:43:39.922Z,7.2
2018-11-25T07:44:41.471Z,7.2
2018-11-25T07:45:43.026Z,7.2
2018-11-25T07:46:44.279Z,7.2
2018-11-25T07:47:45.550Z,7.2
2018-11-25T07:48:47.152Z,7.2
2018-11-25T07:49:48.531Z,7.1
2018-11-25T07:50:50.078Z,7.2
2018-11-25T07:51:51.047Z,7.1
2018-11-25T07:52:52.634Z,7.1
2018-11-25T07:53:55.628Z,7.2
2018-11-25T07:54:57.475Z,7.1
2018-11-25T07:55:58.865Z,7.1
2018-11-25T07:57:00.444Z,7.1
2018-11-25T07:58:01.584Z,7.1
2018-11-25T07:59:03.048Z,7.2
2018-11-25T08:00:04.600Z,7.1
2018-11-25T08:01:06.014Z,7.2
2018-11-25T08:02:07.589Z,7.2
2018-11-25T08:03:08.983Z,7.2
2018-11-25T08:04:10.368Z,7.2
2018-11-25T08:05:11.932Z,7.2
2018-11-25T08:06:13.173Z,7.2
2018-11-25T08:07:14.421Z,7.3
2018-11-25T08:08:15.809Z,7.5
2018-11-25T08:09:17.369Z,7.8
2018-11-25T08:10:18.624Z,7.9
2018-11-25T08:11:20.021Z,7.7
2018-11-25T08:12:21.567Z,7.3
2018-11-25T08:13:23.012Z,7.6
2018-11-25T08:14:24.396Z,7.8
2018-11-25T08:15:25.637Z,7.9
2018-11-25T08:16:27.183Z,7.9
2018-11-25T08:17:28.579Z,7.9
2018-11-25T08:18:30.059Z,7.9
2018-11-25T08:19:31.630Z,7.9
2018-11-25T08:20:33.026Z,7.9
2018-11-25T08:21:34.583Z,7.8
2018-11-25T08:22:36.019Z,7.8
2018-11-25T08:23:37.613Z,7.8
2018-11-25T08:24:38.700Z,7.8
2018-11-25T08:25:40.145Z,7.8
2018-11-25T08:26:41.717Z,7.8
2018-11-25T08:27:43.300Z,7.8
2018-11-25T08:28:44.879Z,7.7
2018-11-25T08:29:46.116Z,7.7
2018-11-25T08:30:46.918Z,7.7
2018-11-25T08:31:48.516Z,7.7
2018-11-25T08:32:49.647Z,7.7
2018-11-25T08:33:51.225Z,7.6
2018-11-25T08:34:52.825Z,7.6
2018-11-25T08:35:54.386Z,7.6
2018-11-25T08:36:55.523Z,7.6
2018-11-25T08:37:56.769Z,7.6
2018-11-25T08:38:58.173Z,7.5
2018-11-25T08:39:59.485Z,7.5
2018-11-25T08:41:00.911Z,7.5
2018-11-25T08:42:02.323Z,7.5
2018-11-25T08:43:03.729Z,7.5
2018-11-25T08:44:05.296Z,7.5
2018-11-25T08:45:06.579Z,7.5
2018-11-25T08:46:07.997Z,7.6
2018-11-25T08:47:09.569Z,7.6
2018-11-25T08:48:10.974Z,7.6
2018-11-25T08:49:12.553Z,7.7
2018-11-25T08:50:13.949Z,7.7
2018-11-25T08:51:15.360Z,7.8
2018-11-25T08:52:16.588Z,7.9
2018-11-25T08:53:18.136Z,7.9
2018-11-25T08:54:19.563Z,7.9
2018-11-25T08:55:21.020Z,7.6
2018-11-25T08:56:22.422Z,7.8
2018-11-25T08:57:25.340Z,7.9
2018-11-25T08:58:26.746Z,7.9
2018-11-25T08:59:28.328Z,7.9
2018-11-25T09:00:29.890Z,7.7
2018-11-25T09:01:31.284Z,7.9
2018-11-25T09:02:32.530Z,7.9
2018-11-25T09:03:35.246Z,7.9
2018-11-25T09:04:36.604Z,7.8
2018-11-25T09:05:37.703Z,7.6
2018-11-25T09:06:39.092Z,7.8
2018-11-25T09:07:40.516Z,7.9
2018-11-25T09:08:41.797Z,7.6
2018-11-25T09:09:43.048Z,7.7
2018-11-25T09:10:43.993Z,7.8
2018-11-25T09:11:45.568Z,7.9
2018-11-25T09:12:57.111Z,7.9
2018-11-25T09:13:58.534Z,7.9
2018-11-25T09:14:59.940Z,7.8
2018-11-25T09:16:01.568Z,7.8
2018-11-25T09:17:02.813Z,7.7
2018-11-25T09:18:04.480Z,7.6
2018-11-25T09:19:06.031Z,7.5
2018-11-25T09:20:07.445Z,7.3
2018-11-25T09:21:09.018Z,7.2
2018-11-25T09:22:10.425Z,7.2
2018-11-25T09:23:11.525Z,7.2
2018-11-25T09:24:12.618Z,7.2
2018-11-25T09:25:15.326Z,7.2
2018-11-25T09:26:16.732Z,7.2
2018-11-25T09:27:18.294Z,7.1
2018-11-25T09:28:19.782Z,7.1
2018-11-25T09:29:21.036Z,7.2
2018-11-25T09:30:22.527Z,7.2
2018-11-25T09:31:23.617Z,7.2
2018-11-25T09:32:24.716Z,7.2
2018-11-25T09:33:25.998Z,7.2
2018-11-25T09:34:27.601Z,7.2
2018-11-25T09:35:29.205Z,7.2
2018-11-25T09:37:46.716Z,7.2
2018-11-25T09:38:48.351Z,7.3
2018-11-25T09:39:49.910Z,7.3
2018-11-25T09:40:55.137Z,7.4
2018-11-25T09:42:01.233Z,7.4
2018-11-25T09:43:02.827Z,7.5
2018-11-25T09:44:04.177Z,7.6
2018-11-25T09:45:06.219Z,7.7
2018-11-25T09:46:08.217Z,7.7
2018-11-25T09:47:10.778Z,7.8
2018-11-25T09:48:12.192Z,7.8
2018-11-25T09:49:13.595Z,7.9
2018-11-25T09:50:14.866Z,7.9
2018-11-25T09:51:16.264Z,7.9
2018-11-25T09:52:17.658Z,7.9
2018-11-25T09:53:19.087Z,7.9
2018-11-25T09:54:20.507Z,7.9
2018-11-25T09:55:23.957Z,7.9
2018-11-25T09:56:25.199Z,7.8
2018-11-25T09:57:26.448Z,7.8
2018-11-25T09:58:28.009Z,7.8
2018-11-25T09:59:29.261Z,7.7
2018-11-25T10:00:30.499Z,7.7
2018-11-25T10:01:31.899Z,7.6
2018-11-25T10:02:32.987Z,7.6
2018-11-25T10:03:34.230Z,7.6
2018-11-25T10:04:35.640Z,7.5
2018-11-25T10:05:36.910Z,7.5
2018-11-25T10:06:41.220Z,7.5
2018-11-25T10:07:42.319Z,7.5
2018-11-25T10:08:43.708Z,7.5
2018-11-25T10:09:45.108Z,7.5
2018-11-25T10:10:54.029Z,7.5
2018-11-25T10:11:55.632Z,7.5
2018-11-25T10:12:56.891Z,7.5
2018-11-25T10:13:58.475Z,7.4
2018-11-25T10:14:59.920Z,7.5
2018-11-25T10:16:01.330Z,7.5
2018-11-25T10:17:02.741Z,7.5
2018-11-25T10:18:04.164Z,7.5
2018-11-25T10:19:05.738Z,7.6
2018-11-25T10:20:07.298Z,7.6
2018-11-25T10:21:08.538Z,7.6
2018-11-25T10:22:10.009Z,7.7
2018-11-25T10:23:11.259Z,7.7
2018-11-25T10:24:12.559Z,7.7
2018-11-25T10:25:14.140Z,7.7
2018-11-25T10:26:15.390Z,7.7
2018-11-25T10:27:16.740Z,7.8
2018-11-25T10:28:17.821Z,7.8
2018-11-25T10:29:19.389Z,7.8
2018-11-25T10:30:20.798Z,7.9
2018-11-25T10:31:22.369Z,7.9
2018-11-25T10:32:23.780Z,7.9
2018-11-25T10:33:25.453Z,7.9
2018-11-25T10:34:27.033Z,7.9
2018-11-25T10:35:28.619Z,7.9
2018-11-25T10:36:30.238Z,7.9
2018-11-25T10:37:31.644Z,7.9
2018-11-25T10:38:33.030Z,7.8
2018-11-25T10:39:34.598Z,7.9
2018-11-25T10:40:35.709Z,7.9
2018-11-25T10:41:37.132Z,7.9
2018-11-25T10:42:38.408Z,7.9
2018-11-25T10:43:39.827Z,7.9
2018-11-25T10:44:41.079Z,7.9
2018-11-25T10:45:42.359Z,7.9
2018-11-25T10:46:43.927Z,7.9
2018-11-25T10:47:45.385Z,7.9
2018-11-25T10:48:46.502Z,7.8
2018-11-25T10:49:47.902Z,7.8
2018-11-25T10:50:52.781Z,7.8
2018-11-25T10:51:54.342Z,7.7
2018-11-25T10:52:55.822Z,7.6
2018-11-25T10:53:57.374Z,7.5
2018-11-25T10:54:58.950Z,7.3
2018-11-25T10:56:00.379Z,7.2
2018-11-25T10:57:01.774Z,7.1
2018-11-25T10:58:03.189Z,7.1
2018-11-25T10:59:04.603Z,7.2
2018-11-25T11:00:06.184Z,7.1
2018-11-25T11:01:07.437Z,7.1
2018-11-25T11:02:08.875Z,7.1
2018-11-25T11:03:10.450Z,7.1
2018-11-25T11:04:11.877Z,7.1
2018-11-25T11:05:13.201Z,7.1
2018-11-25T11:06:14.318Z,7.2
2018-11-25T11:07:15.879Z,7.2
2018-11-25T11:08:17.278Z,7.2
2018-11-25T11:09:18.724Z,7.2
2018-11-25T11:10:20.138Z,7.2
2018-11-25T11:11:21.405Z,7.2
2018-11-25T11:12:22.992Z,7.3
2018-11-25T11:13:24.227Z,7.3
2018-11-25T11:14:25.799Z,7.4
2018-11-25T11:15:27.382Z,7.5
2018-11-25T11:16:28.934Z,7.5
2018-11-25T11:17:30.338Z,7.6
2018-11-25T11:18:38.854Z,7.7
2018-11-25T11:19:40.415Z,7.8
2018-11-25T11:20:41.831Z,7.9
2018-11-25T11:21:43.257Z,7.9
2018-11-25T11:22:44.662Z,7.9
2018-11-25T11:23:45.896Z,7.9
2018-11-25T11:24:47.299Z,7.9
2018-11-25T11:25:48.698Z,7.8
2018-11-25T11:26:50.317Z,7.8
2018-11-25T11:27:51.879Z,7.8
2018-11-25T11:28:53.305Z,7.8
2018-11-25T11:29:54.543Z,7.8
2018-11-25T11:30:56.102Z,7.8
2018-11-25T11:31:57.258Z,7.7
2018-11-25T11:32:58.589Z,7.7
2018-11-25T11:33:59.845Z,7.7
2018-11-25T11:35:01.105Z,7.7
2018-11-25T11:36:02.686Z,7.7
2018-11-25T11:37:03.925Z,7.7
2018-11-25T11:38:05.320Z,7.7
2018-11-25T11:39:06.739Z,7.7
2018-11-25T11:40:08.175Z,7.7
2018-11-25T11:41:09.750Z,7.7
2018-11-25T11:42:11.000Z,7.7
2018-11-25T11:43:12.266Z,7.7
2018-11-25T11:44:13.549Z,7.7
2018-11-25T11:45:14.496Z,7.8
2018-11-25T11:46:16.296Z,7.8
2018-11-25T11:47:17.407Z,7.8
2018-11-25T11:48:18.973Z,7.9
2018-11-25T11:49:20.568Z,7.9
2018-11-25T11:50:22.147Z,7.9
2018-11-25T11:51:28.451Z,7.9
2018-11-25T11:52:30.012Z,7.9
2018-11-25T11:53:31.552Z,7.9
2018-11-25T11:54:32.967Z,7.9
2018-11-25T11:55:34.369Z,7.9
2018-11-25T11:56:41.880Z,7.9
2018-11-25T11:57:43.302Z,7.9
2018-11-25T11:58:44.539Z,7.9
2018-11-25T11:59:46.882Z,7.9
2018-11-25T12:00:48.458Z,7.9
2018-11-25T12:01:50.013Z,7.9
2018-11-25T12:02:51.168Z,7.9
2018-11-25T12:03:52.566Z,7.7
2018-11-25T12:04:54.140Z,7.8
2018-11-25T12:05:55.693Z,7.9
2018-11-25T12:06:56.942Z,7.9
2018-11-25T12:07:58.346Z,7.9
2018-11-25T12:08:59.936Z,7.9
2018-11-25T12:10:01.416Z,7.2
2018-11-25T12:11:14.287Z,7.3
2018-11-25T12:12:15.829Z,7.4
2018-11-25T12:13:17.389Z,7.4
2018-11-25T12:14:18.981Z,7.4
2018-11-25T12:15:20.393Z,7.4
2018-11-25T12:16:21.662Z,7.3
2018-11-25T12:17:22.895Z,7.2
2018-11-25T12:18:24.471Z,7.2
2018-11-25T12:19:26.025Z,7.2
2018-11-25T12:20:27.441Z,7.2
2018-11-25T12:21:28.842Z,7.2
2018-11-25T12:22:30.079Z,7.2
2018-11-25T12:23:31.312Z,7.2
2018-11-25T12:24:32.781Z,7.2
2018-11-25T12:25:34.436Z,7.2
2018-11-25T12:26:35.715Z,7.2
2018-11-25T12:27:37.123Z,7.2
2018-11-25T12:28:38.525Z,7.2
2018-11-25T12:29:39.788Z,7.2
2018-11-25T12:30:41.231Z,7.2
2018-11-25T12:31:42.649Z,7.2
2018-11-25T12:32:44.269Z,7.2
2018-11-25T12:33:45.879Z,7.2
2018-11-25T12:34:47.291Z,7.2
2018-11-25T12:35:48.767Z,7.2
2018-11-25T12:36:50.345Z,7.2
2018-11-25T12:37:51.949Z,7.2
2018-11-25T12:38:53.524Z,7.2
2018-11-25T12:39:54.760Z,7.2
2018-11-25T12:40:56.019Z,7.2
2018-11-25T12:41:57.580Z,7.2
2018-11-25T12:43:00.178Z,7.2
2018-11-25T12:44:01.609Z,7.2
2018-11-25T12:45:02.861Z,7.2
2018-11-25T12:46:04.128Z,7.2
2018-11-25T12:47:06.275Z,7.2
2018-11-25T12:48:07.877Z,7.3
2018-11-25T12:49:10.699Z,7.4
2018-11-25T12:50:11.811Z,7.4
2018-11-25T12:51:13.070Z,7.5
2018-11-25T12:52:14.626Z,7.6
2018-11-25T12:53:15.872Z,7.6
2018-11-25T12:54:17.454Z,7.7
2018-11-25T12:55:18.882Z,7.7
2018-11-25T12:56:20.300Z,7.8
2018-11-25T12:57:21.405Z,7.8
2018-11-25T12:58:22.967Z,7.8
2018-11-25T12:59:24.528Z,7.9
2018-11-25T13:00:26.095Z,7.9
2018-11-25T13:01:27.499Z,7.9
2018-11-25T13:02:28.760Z,7.9
2018-11-25T13:03:30.139Z,7.9
2018-11-25T13:04:31.707Z,7.9
2018-11-25T13:05:33.153Z,7.9
2018-11-25T13:06:34.749Z,7.9
2018-11-25T13:07:36.449Z,7.9
2018-11-25T13:08:37.769Z,7.8
2018-11-25T13:09:39.779Z,7.8
2018-11-25T13:10:41.318Z,7.8
2018-11-25T13:11:44.439Z,7.8
2018-11-25T13:12:46.279Z,7.8
2018-11-25T13:13:47.934Z,7.7
2018-11-25T13:14:49.610Z,7.7
2018-11-25T13:15:51.781Z,7.6
2018-11-25T13:16:53.767Z,7.6
2018-11-25T13:17:55.271Z,7.6
2018-11-25T13:18:57.117Z,7.6
2018-11-25T13:19:59.000Z,7.6
2018-11-25T13:21:00.655Z,7.6
2018-11-25T13:22:02.600Z,7.6
2018-11-25T13:23:04.396Z,7.6
2018-11-25T13:24:06.711Z,7.7
2018-11-25T13:25:08.974Z,7.7
2018-11-25T13:26:10.994Z,7.8
2018-11-25T13:27:12.558Z,7.8
2018-11-25T13:28:13.925Z,7.8
2018-11-25T13:29:15.737Z,7.9
2018-11-25T13:30:18.066Z,7.9
2018-11-25T13:31:19.769Z,7.9
2018-11-25T13:32:21.063Z,7.9
2018-11-25T13:33:23.067Z,7.9
2018-11-25T13:34:24.929Z,7.9
2018-11-25T13:35:27.748Z,7.8
2018-11-25T13:36:29.875Z,7.8
2018-11-25T13:37:31.516Z,7.9
2018-11-25T13:38:32.925Z,7.9
2018-11-25T13:39:34.690Z,7.9
2018-11-25T13:40:36.552Z,7.9
2018-11-25T13:41:38.670Z,7.9
2018-11-25T13:42:40.275Z,7.9
2018-11-25T13:43:42.149Z,7.9
2018-11-25T13:44:44.035Z,7.8
2018-11-25T13:45:46.341Z,7.8
2018-11-25T13:46:48.337Z,7.7
2018-11-25T13:47:50.201Z,7.6
2018-11-25T13:48:51.882Z,7.5
2018-11-25T13:49:53.946Z,7.4
2018-11-25T13:50:55.720Z,7.2
2018-11-25T13:51:57.595Z,7.2
2018-11-25T13:52:59.359Z,7.2
2018-11-25T13:54:00.973Z,7.2
2018-11-25T13:55:02.570Z,7.2
2018-11-25T13:56:04.316Z,7.2
2018-11-25T13:57:06.118Z,7.2
2018-11-25T13:58:07.841Z,7.2
2018-11-25T13:59:09.719Z,7.2
2018-11-25T14:00:11.554Z,7.2
2018-11-25T14:01:13.189Z,7.2
2018-11-25T14:02:14.808Z,7.2
2018-11-25T14:03:15.911Z,7.2
2018-11-25T14:04:17.204Z,7.2
2018-11-25T14:05:19.051Z,7.2
2018-11-25T14:06:20.499Z,7.2
2018-11-25T14:07:21.783Z,7.2
2018-11-25T14:08:23.215Z,7.2